sensor_id;sensor_type;location;lat;lon;timestamp;temperature;humidity
28546;DHT22;15749;49.606;8.738;2022-08-18T00:00:19;25.30;92.70
28546;DHT22;15749;49.606;8.738;2022-08-18T00:03:08;25.30;93.40
28546;DHT22;15749;49.606;8.738;2022-08-18T00:06:17;25.20;93.30
28546;DHT22;15749;49.606;8.738;2022-08-18T00:09:08;25.20;93.20
28546;DHT22;15749;49.606;8.738;2022-08-18T00:11:56;25.20;93.30
28546;DHT22;15749;49.606;8.738;2022-08-18T00:14:45;25.20;94.10
28546;DHT22;15749;49.606;8.738;2022-08-18T00:17:34;25.20;93.60
28546;DHT22;15749;49.606;8.738;2022-08-18T00:20:24;25.20;93.60
28546;DHT22;15749;49.606;8.738;2022-08-18T00:23:12;25.20;93.30
28546;DHT22;15749;49.606;8.738;2022-08-18T00:26:01;25.20;94.00
28546;DHT22;15749;49.606;8.738;2022-08-18T00:28:49;25.20;95.00
28546;DHT22;15749;49.606;8.738;2022-08-18T00:31:37;25.20;94.50
28546;DHT22;15749;49.606;8.738;2022-08-18T00:34:26;25.20;94.30
28546;DHT22;15749;49.606;8.738;2022-08-18T00:37:17;25.20;94.20
28546;DHT22;15749;49.606;8.738;2022-08-18T00:40:06;25.30;95.00
28546;DHT22;15749;49.606;8.738;2022-08-18T00:42:59;25.30;94.20
28546;DHT22;15749;49.606;8.738;2022-08-18T00:45:48;25.30;93.30
28546;DHT22;15749;49.606;8.738;2022-08-18T00:48:36;25.30;94.00
28546;DHT22;15749;49.606;8.738;2022-08-18T00:51:28;25.30;94.30
28546;DHT22;15749;49.606;8.738;2022-08-18T00:54:27;25.40;93.60
28546;DHT22;15749;49.606;8.738;2022-08-18T00:57:17;25.40;93.00
28546;DHT22;15749;49.606;8.738;2022-08-18T01:00:09;25.40;93.30
28546;DHT22;15749;49.606;8.738;2022-08-18T01:03:02;25.40;94.30
28546;DHT22;15749;49.606;8.738;2022-08-18T01:05:55;25.40;94.90
28546;DHT22;15749;49.606;8.738;2022-08-18T01:08:47;25.50;93.90
28546;DHT22;15749;49.606;8.738;2022-08-18T01:11:36;25.50;93.50
28546;DHT22;15749;49.606;8.738;2022-08-18T01:14:25;25.50;93.40
28546;DHT22;15749;49.606;8.738;2022-08-18T01:17:14;25.50;93.30
28546;DHT22;15749;49.606;8.738;2022-08-18T01:20:24;25.50;92.40
28546;DHT22;15749;49.606;8.738;2022-08-18T01:23:35;25.50;92.30
28546;DHT22;15749;49.606;8.738;2022-08-18T01:26:25;25.50;91.90
28546;DHT22;15749;49.606;8.738;2022-08-18T01:29:12;25.50;92.20
28546;DHT22;15749;49.606;8.738;2022-08-18T01:32:04;25.50;92.40
28546;DHT22;15749;49.606;8.738;2022-08-18T01:34:52;25.50;92.10
28546;DHT22;15749;49.606;8.738;2022-08-18T01:37:40;25.50;91.80
28546;DHT22;15749;49.606;8.738;2022-08-18T01:40:30;25.50;92.40
28546;DHT22;15749;49.606;8.738;2022-08-18T01:43:38;25.50;92.50
28546;DHT22;15749;49.606;8.738;2022-08-18T01:46:27;25.50;92.90
28546;DHT22;15749;49.606;8.738;2022-08-18T01:49:16;25.50;92.20
28546;DHT22;15749;49.606;8.738;2022-08-18T01:52:05;25.50;92.10
28546;DHT22;15749;49.606;8.738;2022-08-18T01:54:53;25.50;91.90
28546;DHT22;15749;49.606;8.738;2022-08-18T01:57:44;25.50;92.80
28546;DHT22;15749;49.606;8.738;2022-08-18T02:00:32;25.50;92.70
28546;DHT22;15749;49.606;8.738;2022-08-18T02:03:22;25.50;91.90
28546;DHT22;15749;49.606;8.738;2022-08-18T02:06:14;25.50;91.60
28546;DHT22;15749;49.606;8.738;2022-08-18T02:09:17;25.50;91.10
28546;DHT22;15749;49.606;8.738;2022-08-18T02:12:09;25.50;91.30
28546;DHT22;15749;49.606;8.738;2022-08-18T02:14:59;25.50;91.70
28546;DHT22;15749;49.606;8.738;2022-08-18T02:17:46;25.50;91.80
28546;DHT22;15749;49.606;8.738;2022-08-18T02:20:35;25.40;91.80
28546;DHT22;15749;49.606;8.738;2022-08-18T02:23:23;25.50;91.60
28546;DHT22;15749;49.606;8.738;2022-08-18T02:26:13;25.50;91.50
28546;DHT22;15749;49.606;8.738;2022-08-18T02:29:03;25.50;91.40
28546;DHT22;15749;49.606;8.738;2022-08-18T02:31:52;25.50;91.50
28546;DHT22;15749;49.606;8.738;2022-08-18T02:34:40;25.50;91.90
28546;DHT22;15749;49.606;8.738;2022-08-18T02:37:28;25.50;92.80
28546;DHT22;15749;49.606;8.738;2022-08-18T02:40:17;25.50;92.90
28546;DHT22;15749;49.606;8.738;2022-08-18T02:43:06;25.50;93.10
28546;DHT22;15749;49.606;8.738;2022-08-18T02:45:55;25.50;93.00
28546;DHT22;15749;49.606;8.738;2022-08-18T02:48:44;25.50;93.40
28546;DHT22;15749;49.606;8.738;2022-08-18T02:51:32;25.50;92.70
28546;DHT22;15749;49.606;8.738;2022-08-18T02:54:21;25.50;93.40
28546;DHT22;15749;49.606;8.738;2022-08-18T02:57:10;25.50;93.30
28546;DHT22;15749;49.606;8.738;2022-08-18T02:59:59;25.60;93.90
28546;DHT22;15749;49.606;8.738;2022-08-18T03:02:49;25.60;93.40
28546;DHT22;15749;49.606;8.738;2022-08-18T03:05:41;25.60;93.70
28546;DHT22;15749;49.606;8.738;2022-08-18T03:08:28;25.60;94.40
28546;DHT22;15749;49.606;8.738;2022-08-18T03:11:19;25.60;94.50
28546;DHT22;15749;49.606;8.738;2022-08-18T03:14:08;25.60;94.60
28546;DHT22;15749;49.606;8.738;2022-08-18T03:16:56;25.60;94.80
28546;DHT22;15749;49.606;8.738;2022-08-18T03:19:45;25.60;94.60
28546;DHT22;15749;49.606;8.738;2022-08-18T03:22:35;25.60;94.10
28546;DHT22;15749;49.606;8.738;2022-08-18T03:25:25;25.60;93.70
28546;DHT22;15749;49.606;8.738;2022-08-18T03:28:13;25.60;94.70
28546;DHT22;15749;49.606;8.738;2022-08-18T03:31:02;25.60;94.80
28546;DHT22;15749;49.606;8.738;2022-08-18T03:33:52;25.60;94.80
28546;DHT22;15749;49.606;8.738;2022-08-18T03:36:45;25.60;94.80
28546;DHT22;15749;49.606;8.738;2022-08-18T03:39:35;25.70;94.90
28546;DHT22;15749;49.606;8.738;2022-08-18T03:42:23;25.70;94.80
28546;DHT22;15749;49.606;8.738;2022-08-18T03:45:10;25.70;95.20
28546;DHT22;15749;49.606;8.738;2022-08-18T03:48:03;25.70;94.90
28546;DHT22;15749;49.606;8.738;2022-08-18T03:50:51;25.70;95.20
28546;DHT22;15749;49.606;8.738;2022-08-18T03:53:39;25.60;94.10
28546;DHT22;15749;49.606;8.738;2022-08-18T03:56:31;25.70;94.70
28546;DHT22;15749;49.606;8.738;2022-08-18T03:59:22;25.60;94.90
28546;DHT22;15749;49.606;8.738;2022-08-18T04:02:11;25.60;94.80
28546;DHT22;15749;49.606;8.738;2022-08-18T04:05:00;25.60;94.50
28546;DHT22;15749;49.606;8.738;2022-08-18T04:07:50;25.60;94.70
28546;DHT22;15749;49.606;8.738;2022-08-18T04:10:39;25.60;95.00
28546;DHT22;15749;49.606;8.738;2022-08-18T04:13:28;25.60;94.40
28546;DHT22;15749;49.606;8.738;2022-08-18T04:16:21;25.60;94.60
28546;DHT22;15749;49.606;8.738;2022-08-18T04:19:10;25.60;94.90
28546;DHT22;15749;49.606;8.738;2022-08-18T04:21:59;25.60;95.20
28546;DHT22;15749;49.606;8.738;2022-08-18T04:24:49;25.60;94.90
28546;DHT22;15749;49.606;8.738;2022-08-18T04:27:37;25.60;94.50
28546;DHT22;15749;49.606;8.738;2022-08-18T04:30:29;25.60;95.00
28546;DHT22;15749;49.606;8.738;2022-08-18T04:33:17;25.60;94.40
28546;DHT22;15749;49.606;8.738;2022-08-18T04:36:07;25.60;94.90
28546;DHT22;15749;49.606;8.738;2022-08-18T04:39:06;25.60;95.30
28546;DHT22;15749;49.606;8.738;2022-08-18T04:41:55;25.60;96.00
28546;DHT22;15749;49.606;8.738;2022-08-18T04:44:44;25.60;96.00
28546;DHT22;15749;49.606;8.738;2022-08-18T04:47:33;25.60;96.20
28546;DHT22;15749;49.606;8.738;2022-08-18T04:50:24;25.60;96.40
28546;DHT22;15749;49.606;8.738;2022-08-18T04:53:15;25.60;96.60
28546;DHT22;15749;49.606;8.738;2022-08-18T04:56:22;25.60;96.30
28546;DHT22;15749;49.606;8.738;2022-08-18T04:59:13;25.60;96.40
28546;DHT22;15749;49.606;8.738;2022-08-18T05:02:02;25.60;96.20
28546;DHT22;15749;49.606;8.738;2022-08-18T05:05:00;25.50;96.30
28546;DHT22;15749;49.606;8.738;2022-08-18T05:07:49;25.50;96.70
28546;DHT22;15749;49.606;8.738;2022-08-18T05:10:38;25.50;96.90
28546;DHT22;15749;49.606;8.738;2022-08-18T05:13:26;25.50;97.20
28546;DHT22;15749;49.606;8.738;2022-08-18T05:16:14;25.50;97.10
28546;DHT22;15749;49.606;8.738;2022-08-18T05:19:12;25.50;97.10
28546;DHT22;15749;49.606;8.738;2022-08-18T05:22:05;25.50;97.10
28546;DHT22;15749;49.606;8.738;2022-08-18T05:24:54;25.50;97.20
28546;DHT22;15749;49.606;8.738;2022-08-18T05:27:43;25.50;97.10
28546;DHT22;15749;49.606;8.738;2022-08-18T05:30:31;25.50;96.90
28546;DHT22;15749;49.606;8.738;2022-08-18T05:33:19;25.50;96.90
28546;DHT22;15749;49.606;8.738;2022-08-18T05:36:18;25.50;97.30
28546;DHT22;15749;49.606;8.738;2022-08-18T05:39:23;25.40;97.30
28546;DHT22;15749;49.606;8.738;2022-08-18T05:42:15;25.40;96.80
28546;DHT22;15749;49.606;8.738;2022-08-18T05:45:09;25.40;97.10
28546;DHT22;15749;49.606;8.738;2022-08-18T05:47:58;25.40;97.30
28546;DHT22;15749;49.606;8.738;2022-08-18T05:50:47;25.40;97.40
28546;DHT22;15749;49.606;8.738;2022-08-18T05:53:37;25.40;97.60
28546;DHT22;15749;49.606;8.738;2022-08-18T05:56:44;25.40;97.50
28546;DHT22;15749;49.606;8.738;2022-08-18T05:59:36;25.40;97.90
28546;DHT22;15749;49.606;8.738;2022-08-18T06:02:32;25.40;98.20
28546;DHT22;15749;49.606;8.738;2022-08-18T06:05:26;25.40;97.40
28546;DHT22;15749;49.606;8.738;2022-08-18T06:08:16;25.40;98.10
28546;DHT22;15749;49.606;8.738;2022-08-18T06:11:05;25.40;98.00
28546;DHT22;15749;49.606;8.738;2022-08-18T06:14:09;25.40;96.60
28546;DHT22;15749;49.606;8.738;2022-08-18T06:17:03;25.30;96.30
28546;DHT22;15749;49.606;8.738;2022-08-18T06:20:03;25.30;96.10
28546;DHT22;15749;49.606;8.738;2022-08-18T06:23:07;25.30;96.90
28546;DHT22;15749;49.606;8.738;2022-08-18T06:26:10;25.30;96.90
28546;DHT22;15749;49.606;8.738;2022-08-18T06:29:09;25.30;97.60
28546;DHT22;15749;49.606;8.738;2022-08-18T06:32:09;25.30;97.90
28546;DHT22;15749;49.606;8.738;2022-08-18T06:35:10;25.30;97.80
28546;DHT22;15749;49.606;8.738;2022-08-18T06:38:14;25.30;98.00
28546;DHT22;15749;49.606;8.738;2022-08-18T06:41:36;25.30;98.30
28546;DHT22;15749;49.606;8.738;2022-08-18T06:44:35;25.30;98.50
28546;DHT22;15749;49.606;8.738;2022-08-18T06:47:35;25.30;98.60
28546;DHT22;15749;49.606;8.738;2022-08-18T06:50:31;25.30;98.70
28546;DHT22;15749;49.606;8.738;2022-08-18T06:53:21;25.30;98.80
28546;DHT22;15749;49.606;8.738;2022-08-18T06:56:21;25.30;98.90
28546;DHT22;15749;49.606;8.738;2022-08-18T06:59:20;25.30;98.30
28546;DHT22;15749;49.606;8.738;2022-08-18T07:02:25;25.30;98.50
28546;DHT22;15749;49.606;8.738;2022-08-18T07:05:26;25.30;98.10
28546;DHT22;15749;49.606;8.738;2022-08-18T07:08:19;25.30;98.80
28546;DHT22;15749;49.606;8.738;2022-08-18T07:11:19;25.30;97.80
28546;DHT22;15749;49.606;8.738;2022-08-18T07:14:14;25.30;98.10
28546;DHT22;15749;49.606;8.738;2022-08-18T07:17:09;25.30;97.40
28546;DHT22;15749;49.606;8.738;2022-08-18T07:20:04;25.30;97.90
28546;DHT22;15749;49.606;8.738;2022-08-18T07:22:57;25.30;98.30
28546;DHT22;15749;49.606;8.738;2022-08-18T07:25:49;25.30;98.30
28546;DHT22;15749;49.606;8.738;2022-08-18T07:28:47;25.30;97.70
28546;DHT22;15749;49.606;8.738;2022-08-18T07:31:39;25.30;98.20
28546;DHT22;15749;49.606;8.738;2022-08-18T07:34:35;25.20;97.90
28546;DHT22;15749;49.606;8.738;2022-08-18T07:37:38;25.30;97.80
28546;DHT22;15749;49.606;8.738;2022-08-18T07:40:35;25.30;98.20
28546;DHT22;15749;49.606;8.738;2022-08-18T07:43:32;25.30;98.40
28546;DHT22;15749;49.606;8.738;2022-08-18T07:46:35;25.30;98.20
28546;DHT22;15749;49.606;8.738;2022-08-18T07:49:27;25.30;98.70
28546;DHT22;15749;49.606;8.738;2022-08-18T07:52:25;25.30;98.20
28546;DHT22;15749;49.606;8.738;2022-08-18T07:55:34;25.30;98.20
28546;DHT22;15749;49.606;8.738;2022-08-18T07:58:28;25.30;98.50
28546;DHT22;15749;49.606;8.738;2022-08-18T08:01:25;25.30;98.40
28546;DHT22;15749;49.606;8.738;2022-08-18T08:04:26;25.30;98.90
28546;DHT22;15749;49.606;8.738;2022-08-18T08:07:23;25.30;98.40
28546;DHT22;15749;49.606;8.738;2022-08-18T08:10:24;25.30;98.50
28546;DHT22;15749;49.606;8.738;2022-08-18T08:13:22;25.30;98.70
28546;DHT22;15749;49.606;8.738;2022-08-18T08:16:44;25.30;98.50
28546;DHT22;15749;49.606;8.738;2022-08-18T08:20:03;25.30;98.70
28546;DHT22;15749;49.606;8.738;2022-08-18T08:23:04;25.30;99.20
28546;DHT22;15749;49.606;8.738;2022-08-18T08:26:31;25.30;99.20
28546;DHT22;15749;49.606;8.738;2022-08-18T08:29:45;25.30;99.50
28546;DHT22;15749;49.606;8.738;2022-08-18T08:32:41;25.30;99.20
28546;DHT22;15749;49.606;8.738;2022-08-18T08:35:39;25.30;98.90
28546;DHT22;15749;49.606;8.738;2022-08-18T08:38:43;25.30;99.50
28546;DHT22;15749;49.606;8.738;2022-08-18T08:41:38;25.30;99.10
28546;DHT22;15749;49.606;8.738;2022-08-18T08:44:34;25.30;98.50
28546;DHT22;15749;49.606;8.738;2022-08-18T08:47:51;25.30;98.50
28546;DHT22;15749;49.606;8.738;2022-08-18T08:50:58;25.30;98.90
28546;DHT22;15749;49.606;8.738;2022-08-18T08:53:52;25.30;98.80
28546;DHT22;15749;49.606;8.738;2022-08-18T08:56:46;25.30;99.40
28546;DHT22;15749;49.606;8.738;2022-08-18T08:59:39;25.30;99.40
28546;DHT22;15749;49.606;8.738;2022-08-18T09:02:45;25.30;98.80
28546;DHT22;15749;49.606;8.738;2022-08-18T09:05:53;25.30;98.80
28546;DHT22;15749;49.606;8.738;2022-08-18T09:12:18;25.20;97.20
28546;DHT22;15749;49.606;8.738;2022-08-18T09:15:37;25.20;98.60
28546;DHT22;15749;49.606;8.738;2022-08-18T09:18:47;25.20;98.50
28546;DHT22;15749;49.606;8.738;2022-08-18T09:21:46;25.20;99.20
28546;DHT22;15749;49.606;8.738;2022-08-18T09:24:44;25.20;98.80
28546;DHT22;15749;49.606;8.738;2022-08-18T09:27:40;25.20;99.30
28546;DHT22;15749;49.606;8.738;2022-08-18T09:31:15;25.20;99.60
28546;DHT22;15749;49.606;8.738;2022-08-18T09:34:32;25.20;99.60
28546;DHT22;15749;49.606;8.738;2022-08-18T09:37:46;25.20;99.60
28546;DHT22;15749;49.606;8.738;2022-08-18T09:41:04;25.20;99.70
28546;DHT22;15749;49.606;8.738;2022-08-18T09:48:00;25.20;99.30
28546;DHT22;15749;49.606;8.738;2022-08-18T09:54:26;25.20;98.40
28546;DHT22;15749;49.606;8.738;2022-08-18T09:57:20;25.20;99.10
28546;DHT22;15749;49.606;8.738;2022-08-18T10:00:26;25.20;98.90
28546;DHT22;15749;49.606;8.738;2022-08-18T10:03:23;25.20;99.40
28546;DHT22;15749;49.606;8.738;2022-08-18T10:06:19;25.20;99.60
28546;DHT22;15749;49.606;8.738;2022-08-18T10:09:29;25.20;99.90
28546;DHT22;15749;49.606;8.738;2022-08-18T10:12:42;25.20;99.90
28546;DHT22;15749;49.606;8.738;2022-08-18T10:15:55;25.20;99.90
28546;DHT22;15749;49.606;8.738;2022-08-18T10:19:07;25.30;99.90
28546;DHT22;15749;49.606;8.738;2022-08-18T10:22:04;25.30;99.90
28546;DHT22;15749;49.606;8.738;2022-08-18T10:24:57;25.30;99.90
28546;DHT22;15749;49.606;8.738;2022-08-18T10:28:07;25.30;99.90
28546;DHT22;15749;49.606;8.738;2022-08-18T10:31:07;25.30;99.90
28546;DHT22;15749;49.606;8.738;2022-08-18T10:34:08;25.30;99.90
28546;DHT22;15749;49.606;8.738;2022-08-18T10:37:12;25.30;99.90
28546;DHT22;15749;49.606;8.738;2022-08-18T10:40:14;25.40;99.90
28546;DHT22;15749;49.606;8.738;2022-08-18T10:43:17;25.40;99.90
28546;DHT22;15749;49.606;8.738;2022-08-18T10:46:32;25.40;99.90
28546;DHT22;15749;49.606;8.738;2022-08-18T10:49:33;25.40;99.90
28546;DHT22;15749;49.606;8.738;2022-08-18T10:56:17;25.50;99.90
28546;DHT22;15749;49.606;8.738;2022-08-18T10:59:21;25.50;99.90
28546;DHT22;15749;49.606;8.738;2022-08-18T11:02:28;25.50;99.90
28546;DHT22;15749;49.606;8.738;2022-08-18T11:05:27;25.50;99.90
28546;DHT22;15749;49.606;8.738;2022-08-18T11:08:41;25.50;99.90
28546;DHT22;15749;49.606;8.738;2022-08-18T11:11:34;25.50;99.90
28546;DHT22;15749;49.606;8.738;2022-08-18T11:14:42;25.50;99.90
28546;DHT22;15749;49.606;8.738;2022-08-18T11:18:22;25.60;99.90
28546;DHT22;15749;49.606;8.738;2022-08-18T11:21:38;25.60;99.90
28546;DHT22;15749;49.606;8.738;2022-08-18T11:24:30;25.60;99.90
28546;DHT22;15749;49.606;8.738;2022-08-18T11:27:24;25.70;99.90
28546;DHT22;15749;49.606;8.738;2022-08-18T11:30:16;25.70;99.90
28546;DHT22;15749;49.606;8.738;2022-08-18T11:33:04;25.80;99.90
28546;DHT22;15749;49.606;8.738;2022-08-18T11:35:56;25.80;99.90
28546;DHT22;15749;49.606;8.738;2022-08-18T11:38:54;25.80;99.90
28546;DHT22;15749;49.606;8.738;2022-08-18T11:41:44;25.80;99.90
28546;DHT22;15749;49.606;8.738;2022-08-18T11:44:37;25.80;99.90
28546;DHT22;15749;49.606;8.738;2022-08-18T11:47:31;25.90;99.90
28546;DHT22;15749;49.606;8.738;2022-08-18T11:50:27;26.00;99.90
28546;DHT22;15749;49.606;8.738;2022-08-18T11:53:24;26.00;99.90
28546;DHT22;15749;49.606;8.738;2022-08-18T11:56:27;26.00;99.90
28546;DHT22;15749;49.606;8.738;2022-08-18T12:03:43;26.20;99.90
28546;DHT22;15749;49.606;8.738;2022-08-18T12:06:35;26.20;99.90
28546;DHT22;15749;49.606;8.738;2022-08-18T12:09:35;26.20;99.90
28546;DHT22;15749;49.606;8.738;2022-08-18T12:12:50;26.30;99.90
28546;DHT22;15749;49.606;8.738;2022-08-18T12:15:40;26.30;99.90
28546;DHT22;15749;49.606;8.738;2022-08-18T12:18:32;26.30;99.90
28546;DHT22;15749;49.606;8.738;2022-08-18T12:21:20;26.40;99.90
28546;DHT22;15749;49.606;8.738;2022-08-18T12:24:25;26.40;99.70
28546;DHT22;15749;49.606;8.738;2022-08-18T12:27:43;26.40;99.50
28546;DHT22;15749;49.606;8.738;2022-08-18T12:30:34;26.40;99.90
28546;DHT22;15749;49.606;8.738;2022-08-18T12:33:27;26.50;99.90
28546;DHT22;15749;49.606;8.738;2022-08-18T12:36:19;26.50;99.50
28546;DHT22;15749;49.606;8.738;2022-08-18T12:39:12;26.50;98.30
28546;DHT22;15749;49.606;8.738;2022-08-18T12:42:00;26.50;99.00
28546;DHT22;15749;49.606;8.738;2022-08-18T12:44:49;26.60;98.30
28546;DHT22;15749;49.606;8.738;2022-08-18T12:47:39;26.60;99.40
28546;DHT22;15749;49.606;8.738;2022-08-18T12:50:28;26.60;98.90
28546;DHT22;15749;49.606;8.738;2022-08-18T12:53:23;26.60;97.80
28546;DHT22;15749;49.606;8.738;2022-08-18T12:56:32;26.60;97.90
28546;DHT22;15749;49.606;8.738;2022-08-18T12:59:20;26.70;98.40
28546;DHT22;15749;49.606;8.738;2022-08-18T13:02:09;26.70;98.20
28546;DHT22;15749;49.606;8.738;2022-08-18T13:04:58;26.70;99.00
28546;DHT22;15749;49.606;8.738;2022-08-18T13:07:46;26.70;97.80
28546;DHT22;15749;49.606;8.738;2022-08-18T13:10:34;26.80;97.80
28546;DHT22;15749;49.606;8.738;2022-08-18T13:13:31;26.80;98.00
28546;DHT22;15749;49.606;8.738;2022-08-18T13:16:22;26.80;98.20
28546;DHT22;15749;49.606;8.738;2022-08-18T13:19:24;26.90;96.90
28546;DHT22;15749;49.606;8.738;2022-08-18T13:22:19;26.90;97.20
28546;DHT22;15749;49.606;8.738;2022-08-18T13:25:18;26.90;97.20
28546;DHT22;15749;49.606;8.738;2022-08-18T13:28:23;26.90;97.60
28546;DHT22;15749;49.606;8.738;2022-08-18T13:31:15;27.00;97.90
28546;DHT22;15749;49.606;8.738;2022-08-18T13:34:08;27.00;97.40
28546;DHT22;15749;49.606;8.738;2022-08-18T13:37:05;27.00;97.50
28546;DHT22;15749;49.606;8.738;2022-08-18T13:39:54;27.10;97.30
28546;DHT22;15749;49.606;8.738;2022-08-18T13:42:45;27.10;96.20
28546;DHT22;15749;49.606;8.738;2022-08-18T13:45:46;27.10;96.70
28546;DHT22;15749;49.606;8.738;2022-08-18T13:48:41;27.10;96.40
28546;DHT22;15749;49.606;8.738;2022-08-18T13:51:34;27.20;96.20
28546;DHT22;15749;49.606;8.738;2022-08-18T13:54:23;27.20;96.80
28546;DHT22;15749;49.606;8.738;2022-08-18T13:57:18;27.20;95.80
28546;DHT22;15749;49.606;8.738;2022-08-18T14:00:09;27.20;95.90
28546;DHT22;15749;49.606;8.738;2022-08-18T14:03:15;27.20;95.10
28546;DHT22;15749;49.606;8.738;2022-08-18T14:06:16;27.20;96.00
28546;DHT22;15749;49.606;8.738;2022-08-18T14:09:08;27.30;94.80
28546;DHT22;15749;49.606;8.738;2022-08-18T14:12:08;27.30;95.40
28546;DHT22;15749;49.606;8.738;2022-08-18T14:15:12;27.30;94.90
28546;DHT22;15749;49.606;8.738;2022-08-18T14:18:01;27.30;94.80
28546;DHT22;15749;49.606;8.738;2022-08-18T14:20:51;27.30;95.00
28546;DHT22;15749;49.606;8.738;2022-08-18T14:23:58;27.40;95.10
28546;DHT22;15749;49.606;8.738;2022-08-18T14:27:09;27.40;94.90
28546;DHT22;15749;49.606;8.738;2022-08-18T14:29:57;27.40;95.00
28546;DHT22;15749;49.606;8.738;2022-08-18T14:32:46;27.40;94.60
28546;DHT22;15749;49.606;8.738;2022-08-18T14:35:35;27.40;93.30
28546;DHT22;15749;49.606;8.738;2022-08-18T14:38:43;27.40;93.90
28546;DHT22;15749;49.606;8.738;2022-08-18T14:41:36;27.50;94.50
28546;DHT22;15749;49.606;8.738;2022-08-18T14:44:39;27.50;94.00
28546;DHT22;15749;49.606;8.738;2022-08-18T14:47:30;27.50;94.10
28546;DHT22;15749;49.606;8.738;2022-08-18T14:50:23;27.50;94.00
28546;DHT22;15749;49.606;8.738;2022-08-18T14:53:11;27.50;93.50
28546;DHT22;15749;49.606;8.738;2022-08-18T14:56:00;27.50;93.70
28546;DHT22;15749;49.606;8.738;2022-08-18T14:58:48;27.50;93.40
28546;DHT22;15749;49.606;8.738;2022-08-18T15:01:36;27.50;92.50
28546;DHT22;15749;49.606;8.738;2022-08-18T15:04:28;27.50;92.90
28546;DHT22;15749;49.606;8.738;2022-08-18T15:07:17;27.60;93.00
28546;DHT22;15749;49.606;8.738;2022-08-18T15:10:11;27.60;92.30
28546;DHT22;15749;49.606;8.738;2022-08-18T15:13:05;27.60;92.00
28546;DHT22;15749;49.606;8.738;2022-08-18T15:15:54;27.60;92.80
28546;DHT22;15749;49.606;8.738;2022-08-18T15:18:47;27.60;92.70
28546;DHT22;15749;49.606;8.738;2022-08-18T15:21:35;27.70;92.40
28546;DHT22;15749;49.606;8.738;2022-08-18T15:24:43;27.70;92.40
28546;DHT22;15749;49.606;8.738;2022-08-18T15:27:51;27.70;91.90
28546;DHT22;15749;49.606;8.738;2022-08-18T15:30:41;27.70;92.00
28546;DHT22;15749;49.606;8.738;2022-08-18T15:33:36;27.70;90.80
28546;DHT22;15749;49.606;8.738;2022-08-18T15:36:23;27.70;91.40
28546;DHT22;15749;49.606;8.738;2022-08-18T15:39:14;27.70;91.40
28546;DHT22;15749;49.606;8.738;2022-08-18T15:42:08;27.70;90.90
28546;DHT22;15749;49.606;8.738;2022-08-18T15:45:00;27.70;90.60
28546;DHT22;15749;49.606;8.738;2022-08-18T15:47:59;27.80;91.50
28546;DHT22;15749;49.606;8.738;2022-08-18T15:50:48;27.80;91.50
28546;DHT22;15749;49.606;8.738;2022-08-18T15:53:36;27.80;91.80
28546;DHT22;15749;49.606;8.738;2022-08-18T15:56:31;27.80;91.50
28546;DHT22;15749;49.606;8.738;2022-08-18T15:59:20;27.80;91.40
28546;DHT22;15749;49.606;8.738;2022-08-18T16:02:18;27.80;91.30
28546;DHT22;15749;49.606;8.738;2022-08-18T16:05:07;27.80;91.30
28546;DHT22;15749;49.606;8.738;2022-08-18T16:07:59;27.80;90.70
28546;DHT22;15749;49.606;8.738;2022-08-18T16:10:49;27.90;90.40
28546;DHT22;15749;49.606;8.738;2022-08-18T16:13:38;27.90;90.70
28546;DHT22;15749;49.606;8.738;2022-08-18T16:16:28;27.90;90.90
28546;DHT22;15749;49.606;8.738;2022-08-18T16:19:21;27.90;90.70
28546;DHT22;15749;49.606;8.738;2022-08-18T16:22:11;27.90;91.20
28546;DHT22;15749;49.606;8.738;2022-08-18T16:24:58;27.90;91.00
28546;DHT22;15749;49.606;8.738;2022-08-18T16:27:50;27.90;90.90
28546;DHT22;15749;49.606;8.738;2022-08-18T16:30:39;27.90;90.60
28546;DHT22;15749;49.606;8.738;2022-08-18T16:33:29;27.90;89.50
28546;DHT22;15749;49.606;8.738;2022-08-18T16:36:17;27.90;89.60
28546;DHT22;15749;49.606;8.738;2022-08-18T16:39:05;27.90;90.20
28546;DHT22;15749;49.606;8.738;2022-08-18T16:41:54;27.90;90.40
28546;DHT22;15749;49.606;8.738;2022-08-18T16:44:41;27.90;90.00
28546;DHT22;15749;49.606;8.738;2022-08-18T16:47:31;27.90;89.40
28546;DHT22;15749;49.606;8.738;2022-08-18T16:50:25;27.90;90.20
28546;DHT22;15749;49.606;8.738;2022-08-18T16:53:14;28.00;99.90
28546;DHT22;15749;49.606;8.738;2022-08-18T16:56:02;27.90;99.90
28546;DHT22;15749;49.606;8.738;2022-08-18T16:58:56;27.90;99.90
28546;DHT22;15749;49.606;8.738;2022-08-18T17:02:01;27.80;99.90
28546;DHT22;15749;49.606;8.738;2022-08-18T17:05:07;27.70;99.90
28546;DHT22;15749;49.606;8.738;2022-08-18T17:07:59;27.50;99.90
28546;DHT22;15749;49.606;8.738;2022-08-18T17:10:46;27.40;99.90
28546;DHT22;15749;49.606;8.738;2022-08-18T17:13:35;27.30;99.90
28546;DHT22;15749;49.606;8.738;2022-08-18T17:16:26;27.20;99.90
28546;DHT22;15749;49.606;8.738;2022-08-18T17:19:15;27.00;99.90
28546;DHT22;15749;49.606;8.738;2022-08-18T17:22:04;26.90;99.90
28546;DHT22;15749;49.606;8.738;2022-08-18T17:24:57;26.80;99.90
28546;DHT22;15749;49.606;8.738;2022-08-18T17:27:48;26.70;99.90
28546;DHT22;15749;49.606;8.738;2022-08-18T17:30:42;26.50;99.90
28546;DHT22;15749;49.606;8.738;2022-08-18T17:33:35;26.40;99.90
28546;DHT22;15749;49.606;8.738;2022-08-18T17:36:33;26.40;99.90
28546;DHT22;15749;49.606;8.738;2022-08-18T17:39:30;26.30;99.90
28546;DHT22;15749;49.606;8.738;2022-08-18T17:42:21;26.20;99.90
28546;DHT22;15749;49.606;8.738;2022-08-18T17:45:12;26.10;99.90
28546;DHT22;15749;49.606;8.738;2022-08-18T17:48:10;26.00;99.90
28546;DHT22;15749;49.606;8.738;2022-08-18T17:51:02;26.00;99.90
28546;DHT22;15749;49.606;8.738;2022-08-18T17:54:16;25.90;99.90
28546;DHT22;15749;49.606;8.738;2022-08-18T17:57:11;25.90;99.90
28546;DHT22;15749;49.606;8.738;2022-08-18T18:00:05;25.80;99.90
28546;DHT22;15749;49.606;8.738;2022-08-18T18:02:57;25.80;99.90
28546;DHT22;15749;49.606;8.738;2022-08-18T18:05:49;25.70;99.90
28546;DHT22;15749;49.606;8.738;2022-08-18T18:08:47;25.70;99.90
28546;DHT22;15749;49.606;8.738;2022-08-18T18:11:41;25.70;99.90
28546;DHT22;15749;49.606;8.738;2022-08-18T18:14:35;25.70;99.90
28546;DHT22;15749;49.606;8.738;2022-08-18T18:17:28;25.60;99.90
28546;DHT22;15749;49.606;8.738;2022-08-18T18:20:24;25.60;99.90
28546;DHT22;15749;49.606;8.738;2022-08-18T18:23:28;25.60;99.90
28546;DHT22;15749;49.606;8.738;2022-08-18T18:26:24;25.60;99.90
28546;DHT22;15749;49.606;8.738;2022-08-18T18:29:18;25.60;99.90
28546;DHT22;15749;49.606;8.738;2022-08-18T18:32:23;25.60;99.90
28546;DHT22;15749;49.606;8.738;2022-08-18T18:35:16;25.60;99.90
28546;DHT22;15749;49.606;8.738;2022-08-18T18:38:27;25.50;99.90
28546;DHT22;15749;49.606;8.738;2022-08-18T18:41:21;25.50;99.90
28546;DHT22;15749;49.606;8.738;2022-08-18T18:44:14;25.50;99.90